Time;durP1;ratioP1;P1;durP2;ratioP2;P2;SDS_P1;SDS_P2;PMS_P1;PMS_P2;Temp;Humidity;BMP_temperature;BMP_pressure;BME280_temperature;BME280_humidity;BME280_pressure;Samples;Min_cycle;Max_cycle;Signal;HPM_P1;HPM_P2
2022/07/16 00:01:22;;;;;;;2.20;2.00;;;23.10;59.00;;;;;;5050585;28;20316;-70
2022/07/16 00:04:02;;;;;;;2.17;1.98;;;23.10;59.00;;;;;;5051198;28;20182;-70
2022/07/16 00:06:29;;;;;;;1.90;1.70;;;23.10;59.00;;;;;;5051141;28;20177;-70
2022/07/16 00:08:55;;;;;;;2.10;1.98;;;23.10;59.00;;;;;;5051659;28;20170;-70
2022/07/16 00:11:22;;;;;;;1.80;1.70;;;23.10;59.00;;;;;;5051971;28;20293;-70
2022/07/16 00:13:49;;;;;;;2.00;1.80;;;23.10;59.00;;;;;;5050879;28;20197;-70
2022/07/16 00:16:15;;;;;;;1.70;1.60;;;23.10;59.00;;;;;;5037773;28;20237;-70
2022/07/16 00:21:27;;;;;;;1.80;1.70;;;23.10;59.00;;;;;;5030828;28;20238;-70
2022/07/16 00:23:53;;;;;;;2.58;1.80;;;23.10;59.00;;;;;;5031099;28;20179;-70
2022/07/16 00:26:19;;;;;;;1.75;1.65;;;23.10;59.00;;;;;;5032075;28;20186;-70
2022/07/16 00:28:45;;;;;;;1.83;1.73;;;23.10;59.00;;;;;;5030483;28;20191;-70
2022/07/16 00:31:11;;;;;;;2.08;1.90;;;23.10;59.00;;;;;;5014271;28;20265;-70
2022/07/16 00:33:37;;;;;;;2.00;1.88;;;23.10;59.00;;;;;;5031020;28;20179;-69
2022/07/16 00:36:04;;;;;;;2.13;1.98;;;23.10;59.00;;;;;;5032376;28;20200;-70
2022/07/16 00:38:30;;;;;;;2.30;2.10;;;23.10;59.00;;;;;;5030423;28;20275;-70
2022/07/16 00:40:56;;;;;;;2.10;1.95;;;23.10;59.10;;;;;;5030840;28;20234;-69
2022/07/16 00:43:22;;;;;;;2.00;1.90;;;23.10;59.00;;;;;;5031079;28;20215;-69
2022/07/16 00:45:48;;;;;;;2.60;2.10;;;23.10;59.00;;;;;;5030834;28;20195;-69
2022/07/16 00:48:14;;;;;;;1.83;1.73;;;23.10;59.10;;;;;;5030216;28;20190;-69
2022/07/16 00:50:41;;;;;;;2.20;2.10;;;23.10;59.00;;;;;;5030886;28;20203;-69
2022/07/16 00:53:11;;;;;;;1.92;1.80;;;23.10;59.10;;;;;;5030845;28;20214;-69
2022/07/16 00:55:38;;;;;;;2.05;1.95;;;23.00;59.00;;;;;;5048636;28;20178;-70
2022/07/16 00:58:04;;;;;;;2.03;1.80;;;23.00;59.00;;;;;;5051334;28;20178;-69
2022/07/16 01:00:31;;;;;;;1.85;1.75;;;23.00;59.00;;;;;;5052615;28;20273;-69
2022/07/16 01:02:59;;;;;;;2.05;1.90;;;23.00;59.00;;;;;;5054395;28;20716;-69
2022/07/16 01:05:26;;;;;;;1.95;1.85;;;23.00;59.00;;;;;;5055505;28;20592;-70
2022/07/16 01:07:53;;;;;;;1.85;1.75;;;23.00;59.00;;;;;;5036952;28;20191;-69
2022/07/16 01:10:19;;;;;;;2.20;2.00;;;23.00;59.00;;;;;;5037530;28;20181;-69
2022/07/16 01:12:45;;;;;;;2.10;2.00;;;23.00;59.10;;;;;;5054268;28;20171;-69
2022/07/16 01:15:12;;;;;;;2.20;2.10;;;23.00;59.00;;;;;;5055406;28;20179;-69
2022/07/16 01:17:38;;;;;;;2.47;1.80;;;23.00;59.00;;;;;;5037108;28;20179;-69
2022/07/16 01:20:06;;;;;;;2.25;2.10;;;23.00;59.00;;;;;;5071144;28;20174;-69
2022/07/16 01:22:32;;;;;;;1.80;1.70;;;23.00;59.10;;;;;;5055012;28;20261;-69
2022/07/16 01:24:58;;;;;;;2.03;1.83;;;23.00;59.00;;;;;;5037741;28;20681;-69
2022/07/16 01:27:24;;;;;;;2.20;2.05;;;23.00;59.00;;;;;;5054622;28;20189;-70
2022/07/16 01:29:50;;;;;;;2.00;1.90;;;23.00;59.00;;;;;;5054060;28;20182;-69
2022/07/16 01:32:16;;;;;;;1.70;1.60;;;23.00;59.00;;;;;;5053901;28;20202;-69
2022/07/16 01:34:42;;;;;;;2.10;1.90;;;23.00;59.00;;;;;;5037183;28;20185;-70
2022/07/16 01:37:10;;;;;;;3.00;2.10;;;23.00;59.10;;;;;;5053935;28;20567;-69
2022/07/16 01:39:39;;;;;;;2.13;2.03;;;23.00;59.00;;;;;;5053315;28;20240;-69
2022/07/16 01:42:08;;;;;;;2.35;2.00;;;23.00;59.00;;;;;;5053593;28;20221;-69
2022/07/16 01:44:36;;;;;;;1.77;1.67;;;23.00;59.10;;;;;;5054901;28;20182;-69
2022/07/16 01:47:05;;;;;;;1.70;1.60;;;23.00;59.10;;;;;;5054806;28;20227;-69
2022/07/16 01:49:37;;;;;;;1.70;1.60;;;22.90;59.00;;;;;;5036553;28;20311;-69
2022/07/16 01:52:22;;;;;;;1.75;1.65;;;22.90;59.00;;;;;;5053372;28;20293;-69
2022/07/16 01:54:53;;;;;;;2.58;1.90;;;22.90;59.00;;;;;;5054360;28;20269;-69
2022/07/16 01:57:20;;;;;;;1.90;1.75;;;23.00;59.10;;;;;;5053396;28;20186;-70
2022/07/16 01:59:47;;;;;;;2.33;2.13;;;22.90;59.00;;;;;;5037071;28;20185;-69
2022/07/16 02:02:14;;;;;;;1.75;1.65;;;22.90;59.00;;;;;;5050047;28;20218;-69
2022/07/16 02:04:41;;;;;;;2.08;1.98;;;22.90;59.00;;;;;;5054098;28;20206;-69
2022/07/16 02:07:07;;;;;;;1.95;1.85;;;23.00;59.10;;;;;;5036415;28;20236;-69
2022/07/16 02:09:34;;;;;;;2.30;2.10;;;22.90;59.00;;;;;;5052631;28;20175;-69
2022/07/16 02:12:00;;;;;;;2.35;2.08;;;22.90;59.00;;;;;;5052541;28;20207;-69
2022/07/16 02:14:26;;;;;;;1.92;1.83;;;22.90;59.00;;;;;;5053055;28;20210;-69
2022/07/16 02:16:52;;;;;;;2.05;1.95;;;22.90;59.00;;;;;;5052914;28;20179;-69
2022/07/16 02:19:18;;;;;;;2.08;1.88;;;22.90;59.00;;;;;;5053595;28;20316;-69
2022/07/16 02:21:43;;;;;;;1.80;1.70;;;22.90;59.00;;;;;;5052905;28;20206;-69
2022/07/16 02:24:09;;;;;;;2.15;2.05;;;22.90;59.10;;;;;;5036091;28;20183;-69
2022/07/16 02:26:35;;;;;;;2.00;1.80;;;22.90;59.00;;;;;;5052769;28;20193;-69
2022/07/16 02:29:01;;;;;;;1.70;1.60;;;22.90;59.00;;;;;;5052151;28;20179;-69
2022/07/16 02:31:27;;;;;;;1.80;1.70;;;22.90;59.00;;;;;;5052948;28;20282;-69
2022/07/16 02:33:52;;;;;;;1.98;1.88;;;22.90;59.10;;;;;;5052663;28;20205;-69
2022/07/16 02:36:18;;;;;;;2.25;1.90;;;22.90;59.00;;;;;;5052531;28;20261;-70
2022/07/16 02:38:44;;;;;;;2.03;1.83;;;22.90;59.10;;;;;;5051988;28;20179;-70
2022/07/16 02:41:10;;;;;;;2.05;1.65;;;22.90;59.10;;;;;;5035445;28;20301;-70
2022/07/16 02:43:35;;;;;;;2.05;1.60;;;22.90;59.10;;;;;;5035766;28;20210;-69
2022/07/16 02:46:01;;;;;;;1.92;1.83;;;22.90;59.10;;;;;;5052481;28;20186;-69
2022/07/16 02:48:27;;;;;;;2.00;1.90;;;22.90;59.10;;;;;;5051962;28;20175;-70
2022/07/16 02:50:52;;;;;;;1.95;1.85;;;22.90;59.00;;;;;;5053590;28;20203;-69
2022/07/16 02:53:18;;;;;;;2.13;1.92;;;22.90;59.10;;;;;;5052340;28;20186;-69
2022/07/16 02:55:44;;;;;;;2.10;2.00;;;22.90;59.00;;;;;;5052078;28;20174;-70
2022/07/16 02:58:10;;;;;;;2.55;1.88;;;22.90;59.10;;;;;;5035093;28;20187;-70
2022/07/16 03:00:36;;;;;;;2.20;2.00;;;22.90;59.10;;;;;;5048978;28;20674;-70
2022/07/16 03:03:02;;;;;;;2.17;1.90;;;22.90;59.10;;;;;;5053172;28;20220;-70
2022/07/16 03:05:28;;;;;;;1.80;1.70;;;22.90;59.10;;;;;;5053099;28;20277;-70
2022/07/16 03:07:54;;;;;;;2.40;2.20;;;22.80;59.00;;;;;;5051535;28;20254;-70
2022/07/16 03:10:20;;;;;;;2.00;1.90;;;22.80;59.00;;;;;;5051884;28;20205;-70
2022/07/16 03:12:46;;;;;;;2.00;1.90;;;22.90;59.00;;;;;;5051827;28;20190;-70
2022/07/16 03:15:12;;;;;;;2.15;1.92;;;22.90;59.10;;;;;;5051918;28;20189;-70
2022/07/16 03:17:41;;;;;;;2.15;2.00;;;22.90;59.10;;;;;;5034981;28;20194;-70
2022/07/16 03:20:09;;;;;;;1.75;1.65;;;22.90;59.10;;;;;;5052931;28;20179;-70
2022/07/16 03:22:35;;;;;;;2.05;1.95;;;22.90;59.10;;;;;;5034663;28;20699;-70
2022/07/16 03:25:01;;;;;;;1.80;1.70;;;22.80;59.00;;;;;;5051356;28;20186;-69
2022/07/16 03:27:27;;;;;;;1.80;1.70;;;22.80;59.10;;;;;;5051536;28;20179;-70
2022/07/16 03:29:52;;;;;;;1.88;1.77;;;22.80;59.60;;;;;;5051152;28;20212;-70
2022/07/16 03:32:18;;;;;;;2.10;2.00;;;22.80;59.10;;;;;;5052779;28;20209;-69
2022/07/16 03:34:44;;;;;;;1.95;1.70;;;22.80;59.10;;;;;;5051467;28;20187;-69
2022/07/16 03:37:10;;;;;;;1.90;1.80;;;22.80;59.10;;;;;;5052550;28;20190;-70
2022/07/16 03:39:35;;;;;;;1.85;1.75;;;22.80;59.10;;;;;;5033913;28;20190;-70
2022/07/16 03:42:01;;;;;;;2.15;2.05;;;22.80;59.20;;;;;;5051349;28;20227;-70
2022/07/16 03:44:27;;;;;;;1.98;1.88;;;22.80;59.10;;;;;;5035074;28;20178;-70
2022/07/16 03:46:53;;;;;;;1.90;1.80;;;22.80;59.10;;;;;;5051683;28;20182;-70
2022/07/16 03:49:18;;;;;;;1.90;1.80;;;22.80;59.10;;;;;;5050875;28;20247;-70
2022/07/16 03:51:44;;;;;;;2.10;1.90;;;22.80;59.10;;;;;;5034473;28;20323;-69
2022/07/16 03:54:10;;;;;;;1.67;1.58;;;22.80;59.10;;;;;;5034958;28;20201;-70
2022/07/16 03:56:36;;;;;;;2.00;1.90;;;22.80;59.10;;;;;;5051217;28;20646;-70
2022/07/16 03:59:02;;;;;;;1.75;1.65;;;22.80;59.10;;;;;;5051063;28;20179;-70
2022/07/16 04:01:28;;;;;;;2.17;2.00;;;22.80;59.10;;;;;;5052395;28;20202;-70
2022/07/16 04:03:54;;;;;;;1.63;1.52;;;22.80;59.10;;;;;;5052210;28;20202;-69
2022/07/16 04:06:20;;;;;;;1.98;1.88;;;22.80;59.00;;;;;;5051175;28;20167;-69
2022/07/16 04:08:46;;;;;;;1.90;1.80;;;22.80;59.10;;;;;;5031489;28;20193;-70
2022/07/16 04:11:13;;;;;;;2.03;1.92;;;22.80;59.10;;;;;;5034645;28;20625;-69
2022/07/16 04:13:40;;;;;;;1.90;1.80;;;22.80;59.10;;;;;;5056872;28;20217;-69
2022/07/16 04:16:07;;;;;;;2.65;2.40;;;22.70;59.00;;;;;;5052204;28;20170;-69
2022/07/16 04:18:35;;;;;;;2.08;1.98;;;22.70;59.00;;;;;;5050276;28;20187;-69
2022/07/16 04:21:01;;;;;;;2.05;1.90;;;22.80;59.10;;;;;;5052088;28;20214;-70
2022/07/16 04:23:27;;;;;;;1.88;1.77;;;22.70;59.10;;;;;;5051994;28;20213;-70
2022/07/16 04:25:53;;;;;;;1.80;1.70;;;22.70;59.00;;;;;;5051196;28;20182;-70
2022/07/16 04:28:18;;;;;;;2.03;1.92;;;22.70;59.00;;;;;;5050576;28;20197;-70
2022/07/16 04:30:45;;;;;;;2.35;2.15;;;22.70;59.10;;;;;;5050817;28;20210;-70
2022/07/16 04:33:11;;;;;;;2.05;1.95;;;22.80;59.20;;;;;;5052020;28;20190;-70
2022/07/16 04:35:37;;;;;;;1.90;1.80;;;22.70;59.10;;;;;;5053628;28;20182;-70
2022/07/16 04:38:02;;;;;;;1.63;1.52;;;22.70;59.10;;;;;;5054405;28;20228;-70
2022/07/16 04:40:28;;;;;;;2.40;2.20;;;22.70;59.00;;;;;;5054428;28;20179;-70
2022/07/16 04:42:55;;;;;;;1.70;1.60;;;22.80;59.10;;;;;;5054730;28;20285;-70
2022/07/16 04:45:20;;;;;;;2.40;2.20;;;22.80;59.10;;;;;;5055875;28;20181;-70
2022/07/16 04:47:46;;;;;;;2.08;1.98;;;22.70;59.00;;;;;;5054097;28;20179;-70
2022/07/16 04:50:12;;;;;;;2.00;1.90;;;22.80;59.10;;;;;;5038017;28;20228;-70
2022/07/16 04:52:38;;;;;;;1.88;1.70;;;22.70;59.10;;;;;;5055729;28;20728;-70
2022/07/16 04:55:05;;;;;;;2.10;1.88;;;22.80;59.10;;;;;;5054682;28;20186;-69
2022/07/16 04:57:31;;;;;;;3.20;2.35;;;22.70;59.10;;;;;;5054657;28;20206;-70
2022/07/16 04:59:57;;;;;;;2.10;2.00;;;22.80;59.10;;;;;;5070674;28;20228;-69
2022/07/16 05:05:08;;;;;;;2.00;1.90;;;22.70;59.10;;;;;;5054422;28;20198;-70
2022/07/16 05:07:34;;;;;;;2.10;1.98;;;22.70;59.10;;;;;;5055458;28;20183;-69
2022/07/16 05:10:00;;;;;;;2.33;2.13;;;22.70;59.10;;;;;;5037445;28;20178;-70
2022/07/16 05:12:26;;;;;;;1.88;1.77;;;22.70;59.10;;;;;;5055728;28;20229;-70
2022/07/16 05:14:52;;;;;;;2.08;1.98;;;22.70;59.10;;;;;;5054319;28;20189;-70
2022/07/16 05:17:18;;;;;;;1.98;1.88;;;22.70;59.10;;;;;;5054408;28;20266;-69
2022/07/16 05:19:44;;;;;;;1.73;1.63;;;22.70;59.10;;;;;;5053663;28;20186;-70
2022/07/16 05:22:09;;;;;;;2.30;2.10;;;22.70;59.10;;;;;;5055227;28;20210;-69
2022/07/16 05:24:36;;;;;;;1.88;1.77;;;22.70;59.10;;;;;;5037453;28;20691;-70
2022/07/16 05:27:03;;;;;;;1.75;1.65;;;22.70;59.10;;;;;;5037329;28;20191;-70
2022/07/16 05:29:28;;;;;;;2.00;1.90;;;22.70;59.10;;;;;;5036791;28;20197;-70
2022/07/16 05:31:54;;;;;;;2.08;1.98;;;22.70;59.10;;;;;;5053736;28;20202;-70
2022/07/16 05:34:20;;;;;;;2.25;2.05;;;22.70;59.10;;;;;;5054982;28;20317;-69
2022/07/16 05:36:46;;;;;;;1.80;1.70;;;22.70;59.10;;;;;;5053655;28;20188;-69
2022/07/16 05:39:11;;;;;;;2.03;1.92;;;22.70;59.10;;;;;;5052932;28;20642;-70
2022/07/16 05:41:37;;;;;;;2.25;2.05;;;22.70;59.10;;;;;;5037182;28;20217;-69
2022/07/16 05:44:03;;;;;;;2.05;1.90;;;22.70;59.10;;;;;;5037156;28;20649;-70
2022/07/16 05:46:29;;;;;;;2.08;1.98;;;22.70;59.10;;;;;;5052786;28;20193;-70
2022/07/16 05:48:55;;;;;;;2.05;1.85;;;22.70;59.10;;;;;;5054310;28;20245;-70
2022/07/16 05:51:20;;;;;;;2.10;2.00;;;22.70;59.10;;;;;;5053569;28;20204;-70
2022/07/16 05:53:46;;;;;;;2.08;1.98;;;22.70;59.20;;;;;;5037019;28;20185;-70
2022/07/16 05:56:12;;;;;;;1.90;1.80;;;22.70;59.10;;;;;;5054694;28;20214;-69
2022/07/16 05:58:38;;;;;;;2.10;2.00;;;22.70;59.20;;;;;;5053164;28;20189;-70
2022/07/16 06:01:03;;;;;;;2.22;2.03;;;22.70;59.20;;;;;;5053184;28;20230;-69
2022/07/16 06:03:29;;;;;;;2.35;2.17;;;22.70;59.20;;;;;;5053465;28;20206;-70
2022/07/16 06:05:55;;;;;;;2.08;1.98;;;22.70;59.20;;;;;;5053246;28;20190;-70
2022/07/16 06:08:21;;;;;;;2.10;1.90;;;22.60;59.20;;;;;;5053722;28;20186;-69
2022/07/16 06:10:46;;;;;;;2.00;1.90;;;22.70;59.20;;;;;;5054345;28;20214;-70
2022/07/16 06:13:12;;;;;;;2.13;2.03;;;22.70;59.20;;;;;;5053318;28;20182;-70
2022/07/16 06:15:38;;;;;;;2.22;2.08;;;22.70;59.10;;;;;;5036358;28;20214;-70
2022/07/16 06:18:04;;;;;;;2.20;2.10;;;22.70;59.20;;;;;;5052647;28;20175;-70
2022/07/16 06:20:30;;;;;;;2.08;1.98;;;22.70;59.20;;;;;;5053012;28;20194;-70
2022/07/16 06:22:56;;;;;;;2.17;2.08;;;22.70;59.20;;;;;;5041700;28;20202;-70
2022/07/16 06:25:23;;;;;;;2.03;1.90;;;22.70;59.10;;;;;;5054263;28;20190;-70
2022/07/16 06:27:49;;;;;;;2.40;2.20;;;22.80;59.20;;;;;;5055484;28;20224;-70
2022/07/16 06:30:16;;;;;;;2.00;1.80;;;22.70;59.10;;;;;;5056316;28;20273;-70
2022/07/16 06:32:43;;;;;;;2.08;1.98;;;22.80;59.10;;;;;;5072696;28;20209;-71
2022/07/16 06:35:10;;;;;;;2.13;1.92;;;22.80;59.20;;;;;;5072766;28;20186;-70
2022/07/16 06:37:36;;;;;;;2.22;2.10;;;22.80;59.20;;;;;;5048849;28;20233;-70
2022/07/16 06:40:03;;;;;;;2.10;1.90;;;22.70;59.10;;;;;;5048435;28;20195;-70
2022/07/16 06:42:29;;;;;;;2.10;1.90;;;22.80;59.10;;;;;;5033616;28;20246;-70
2022/07/16 06:44:57;;;;;;;2.30;2.10;;;22.70;59.10;;;;;;5032815;28;20682;-70
2022/07/16 06:47:23;;;;;;;2.00;1.90;;;22.70;59.10;;;;;;5052625;28;20185;-70
2022/07/16 06:49:49;;;;;;;2.47;1.95;;;22.80;59.20;;;;;;5053049;28;20178;-70
2022/07/16 06:52:14;;;;;;;2.20;2.10;;;22.80;59.20;;;;;;5052171;28;20761;-69
2022/07/16 06:54:40;;;;;;;2.78;2.10;;;22.80;59.20;;;;;;5053186;28;20183;-70
2022/07/16 06:57:06;;;;;;;2.63;2.42;;;22.70;59.10;;;;;;5052482;28;20265;-69
2022/07/16 06:59:32;;;;;;;2.45;2.25;;;22.70;59.00;;;;;;5051554;28;20669;-69
2022/07/16 07:01:57;;;;;;;2.45;2.28;;;22.70;59.00;;;;;;5051877;28;20303;-71
2022/07/16 07:04:23;;;;;;;2.60;2.15;;;22.70;59.00;;;;;;5051962;28;20182;-70
2022/07/16 07:06:49;;;;;;;2.20;2.00;;;22.70;59.00;;;;;;5052311;28;20178;-70
2022/07/16 07:09:15;;;;;;;2.05;1.95;;;22.70;58.80;;;;;;5048363;28;20180;-70
2022/07/16 07:11:42;;;;;;;2.28;2.17;;;22.80;58.90;;;;;;5032169;28;20276;-69
2022/07/16 07:14:09;;;;;;;2.20;2.00;;;22.70;58.90;;;;;;5031924;28;20191;-70
2022/07/16 07:16:35;;;;;;;2.00;1.90;;;22.80;58.80;;;;;;5031971;28;20722;-70
2022/07/16 07:19:01;;;;;;;2.38;2.10;;;22.80;58.70;;;;;;5031397;28;20255;-68
2022/07/16 07:21:26;;;;;;;2.15;1.95;;;22.80;58.70;;;;;;5031924;28;20618;-69
2022/07/16 07:23:53;;;;;;;2.15;2.05;;;22.80;58.50;;;;;;5031751;28;20211;-70
2022/07/16 07:26:19;;;;;;;2.47;2.28;;;22.70;58.30;;;;;;5031734;28;20171;-69
2022/07/16 07:28:45;;;;;;;3.15;2.20;;;22.80;58.30;;;;;;5032502;28;20186;-70
2022/07/16 07:31:11;;;;;;;2.08;1.98;;;22.80;58.50;;;;;;5031718;28;20218;-69
2022/07/16 07:33:39;;;;;;;2.70;2.50;;;22.80;58.30;;;;;;5031932;28;20183;-70
2022/07/16 07:36:05;;;;;;;2.33;2.13;;;22.80;58.80;;;;;;5031752;28;20198;-69
2022/07/16 07:38:32;;;;;;;2.40;2.20;;;22.80;58.20;;;;;;5032332;28;20180;-70
2022/07/16 07:40:58;;;;;;;2.40;2.20;;;22.80;58.30;;;;;;5031326;28;20229;-70
2022/07/16 07:43:25;;;;;;;2.60;2.40;;;22.80;58.30;;;;;;5031611;28;20207;-69
2022/07/16 07:45:51;;;;;;;2.85;2.65;;;22.80;58.30;;;;;;5031097;28;20180;-68
2022/07/16 07:48:17;;;;;;;2.50;2.30;;;22.80;58.30;;;;;;5031175;28;20184;-70
2022/07/16 07:50:43;;;;;;;2.40;2.25;;;22.80;58.30;;;;;;5031465;28;20202;-70
2022/07/16 07:53:10;;;;;;;2.53;2.33;;;22.80;58.20;;;;;;5031437;28;20175;-70
2022/07/16 07:55:37;;;;;;;3.03;2.20;;;22.80;58.20;;;;;;5014565;28;20194;-70
2022/07/16 07:58:03;;;;;;;2.60;2.40;;;22.80;58.10;;;;;;5032044;28;20695;-69
2022/07/16 08:00:29;;;;;;;2.63;2.42;;;22.80;58.00;;;;;;5031373;28;20195;-70
2022/07/16 08:02:55;;;;;;;2.70;2.50;;;22.80;58.10;;;;;;5031549;28;20223;-70
2022/07/16 08:05:22;;;;;;;2.40;2.20;;;22.90;58.10;;;;;;5032426;28;20252;-70
2022/07/16 08:07:48;;;;;;;2.45;2.25;;;22.90;58.00;;;;;;5032463;28;20168;-69
2022/07/16 08:10:14;;;;;;;2.65;2.45;;;22.90;58.00;;;;;;5030265;28;20171;-69
2022/07/16 08:12:41;;;;;;;2.58;2.30;;;22.90;58.10;;;;;;5030918;28;20294;-69
2022/07/16 08:15:09;;;;;;;2.55;2.35;;;22.90;57.80;;;;;;5050584;28;20257;-70
2022/07/16 08:17:35;;;;;;;2.42;2.30;;;22.90;57.70;;;;;;5034449;28;20182;-70
2022/07/16 08:20:02;;;;;;;2.70;2.50;;;22.90;57.80;;;;;;5051715;28;20187;-70
2022/07/16 08:22:28;;;;;;;2.67;2.47;;;22.90;57.80;;;;;;5034124;28;20222;-69
2022/07/16 08:27:38;;;;;;;2.60;2.40;;;22.90;57.80;;;;;;5051930;28;20181;-71
2022/07/16 08:30:04;;;;;;;2.70;2.50;;;22.90;57.80;;;;;;5031504;28;20713;-69
2022/07/16 08:32:30;;;;;;;2.40;2.20;;;22.90;57.60;;;;;;5032047;28;20211;-70
2022/07/16 08:34:56;;;;;;;2.80;2.60;;;22.90;57.70;;;;;;5014791;28;20179;-70
2022/07/16 08:37:40;;;;;;;2.95;2.67;;;22.90;57.70;;;;;;5030873;28;20651;-70
2022/07/16 08:40:11;;;;;;;2.15;2.00;;;22.90;57.70;;;;;;5024995;28;20186;-70
2022/07/16 08:42:38;;;;;;;2.63;2.42;;;23.00;57.70;;;;;;5034227;28;20210;-69
2022/07/16 08:45:08;;;;;;;3.42;2.47;;;23.00;57.70;;;;;;5051075;28;20182;-70
2022/07/16 08:47:35;;;;;;;3.28;2.33;;;23.00;57.70;;;;;;5050631;28;20190;-70
2022/07/16 08:50:05;;;;;;;2.60;2.20;;;23.00;57.70;;;;;;5051724;28;20182;-70
2022/07/16 08:52:32;;;;;;;3.97;2.60;;;23.00;57.70;;;;;;5034350;28;20207;-70
2022/07/16 08:54:58;;;;;;;2.72;2.50;;;23.00;57.50;;;;;;5050775;28;20182;-70
2022/07/16 08:57:25;;;;;;;3.22;2.60;;;23.00;57.40;;;;;;5051200;28;20185;-70
2022/07/16 08:59:52;;;;;;;4.10;2.20;;;23.00;57.50;;;;;;5050169;28;20183;-70
2022/07/16 09:02:19;;;;;;;2.55;2.17;;;23.10;57.70;;;;;;5050463;28;20576;-70
2022/07/16 09:04:46;;;;;;;3.63;2.60;;;23.10;58.10;;;;;;5034258;28;20189;-72
2022/07/16 09:07:18;;;;;;;2.50;2.30;;;23.10;58.00;;;;;;5046968;28;20684;-69
2022/07/16 09:09:45;;;;;;;4.28;2.53;;;23.10;58.00;;;;;;5031186;28;20240;-69
2022/07/16 09:12:46;;;;;;;2.97;2.67;;;23.10;57.80;;;;;;5030553;28;20218;-69
2022/07/16 09:15:30;;;;;;;3.42;2.28;;;23.10;57.90;;;;;;5031758;28;20171;-69
2022/07/16 09:18:24;;;;;;;6.18;3.05;;;23.10;58.00;;;;;;5030940;28;20194;-70
2022/07/16 09:20:54;;;;;;;5.70;2.50;;;23.10;58.60;;;;;;5031608;28;20213;-69
2022/07/16 09:23:31;;;;;;;4.03;2.95;;;23.10;58.10;;;;;;5034025;28;20201;-69
2022/07/16 09:26:01;;;;;;;3.13;2.58;;;23.10;58.00;;;;;;5017863;28;20178;-69
2022/07/16 09:28:43;;;;;;;4.78;2.58;;;23.10;58.10;;;;;;5033147;28;20193;-69
2022/07/16 09:31:11;;;;;;;5.90;2.50;;;23.20;58.00;;;;;;5034616;28;20203;-69
2022/07/16 09:33:37;;;;;;;4.72;2.80;;;23.10;58.00;;;;;;5033408;28;20560;-69
2022/07/16 09:36:12;;;;;;;3.08;2.38;;;23.10;58.10;;;;;;5034421;28;20191;-69
2022/07/16 09:38:50;;;;;;;3.33;2.58;;;23.10;58.20;;;;;;5033696;28;20248;-69
2022/07/16 09:41:17;;;;;;;4.63;2.40;;;23.20;58.20;;;;;;5016714;28;20203;-69
2022/07/16 09:43:43;;;;;;;5.72;2.80;;;23.10;58.20;;;;;;5016701;28;20215;-70
2022/07/16 09:46:22;;;;;;;5.32;2.83;;;23.10;58.20;;;;;;5034394;28;20179;-69
2022/07/16 09:48:49;;;;;;;5.25;2.80;;;23.10;58.20;;;;;;5032561;28;20183;-69
2022/07/16 09:51:20;;;;;;;3.95;2.50;;;23.10;58.40;;;;;;5033101;28;20226;-69
2022/07/16 09:53:48;;;;;;;3.15;2.85;;;23.10;58.20;;;;;;5033141;28;20659;-69
2022/07/16 09:56:18;;;;;;;3.55;2.88;;;23.10;58.30;;;;;;5032874;28;20289;-69
2022/07/16 09:58:51;;;;;;;3.60;2.15;;;23.10;58.40;;;;;;5032427;28;20237;-69
2022/07/16 10:01:18;;;;;;;2.13;2.00;;;23.10;58.30;;;;;;5033897;28;20287;-69
2022/07/16 10:03:46;;;;;;;3.45;2.60;;;23.20;58.50;;;;;;5032827;28;20219;-69
2022/07/16 10:06:12;;;;;;;4.05;2.63;;;23.10;58.50;;;;;;5016154;28;20188;-69
2022/07/16 10:08:40;;;;;;;4.43;2.75;;;23.10;58.20;;;;;;5032245;28;20195;-70
2022/07/16 10:11:08;;;;;;;4.82;2.97;;;23.10;58.00;;;;;;5016165;28;20210;-69
2022/07/16 10:13:35;;;;;;;3.17;2.25;;;23.10;58.20;;;;;;5032784;28;20187;-69
2022/07/16 10:16:01;;;;;;;4.15;2.50;;;23.10;58.40;;;;;;5039445;28;20194;-69
2022/07/16 10:18:31;;;;;;;4.38;2.30;;;23.20;58.30;;;;;;5052551;28;20244;-69
2022/07/16 10:21:18;;;;;;;3.38;2.53;;;23.20;58.20;;;;;;5036531;28;20296;-69
2022/07/16 10:24:02;;;;;;;3.60;2.40;;;23.10;58.20;;;;;;5054299;28;20210;-69
2022/07/16 10:26:29;;;;;;;5.20;2.53;;;23.20;58.30;;;;;;5052956;28;20174;-69
2022/07/16 10:28:55;;;;;;;3.17;2.47;;;23.10;58.20;;;;;;5052701;28;20179;-69
2022/07/16 10:31:40;;;;;;;2.67;2.30;;;23.10;58.30;;;;;;5052853;28;20294;-69
2022/07/16 10:34:14;;;;;;;3.00;2.40;;;23.10;57.90;;;;;;5053670;28;20218;-70
2022/07/16 10:36:54;;;;;;;3.05;2.58;;;23.10;58.00;;;;;;5052969;28;20535;-69
2022/07/16 10:39:23;;;;;;;2.67;2.40;;;23.10;57.80;;;;;;5052100;28;20174;-69
2022/07/16 10:42:04;;;;;;;4.25;2.40;;;23.10;57.70;;;;;;5053761;28;20210;-69
2022/07/16 10:44:47;;;;;;;4.18;2.60;;;23.10;57.90;;;;;;5052534;28;20201;-70
2022/07/16 10:47:15;;;;;;;3.35;2.45;;;23.20;58.50;;;;;;5052536;28;20174;-69
2022/07/16 10:49:41;;;;;;;3.97;2.45;;;23.10;58.30;;;;;;5052349;28;20345;-70
2022/07/16 10:52:18;;;;;;;3.45;2.15;;;23.10;58.20;;;;;;5052319;28;20194;-69
2022/07/16 10:54:49;;;;;;;2.55;2.33;;;23.20;58.80;;;;;;5036013;28;20178;-69
2022/07/16 10:57:17;;;;;;;2.40;2.20;;;23.20;58.30;;;;;;5052790;28;20626;-70
2022/07/16 10:59:46;;;;;;;4.07;2.67;;;23.20;58.40;;;;;;5052348;28;20182;-70
2022/07/16 11:02:15;;;;;;;3.55;2.58;;;23.10;58.00;;;;;;5052393;28;20285;-70
2022/07/16 11:04:47;;;;;;;2.83;2.38;;;23.20;58.00;;;;;;5035733;28;20733;-69
2022/07/16 11:07:19;;;;;;;3.53;2.55;;;23.20;58.00;;;;;;5052237;28;20256;-69
2022/07/16 11:09:50;;;;;;;3.42;2.60;;;23.20;58.30;;;;;;5068679;28;20185;-69
2022/07/16 11:12:24;;;;;;;3.10;2.40;;;23.10;58.00;;;;;;5052435;28;20229;-69
2022/07/16 11:14:56;;;;;;;3.58;2.45;;;23.20;58.20;;;;;;5052121;28;20211;-69
2022/07/16 11:17:27;;;;;;;5.50;3.08;;;23.20;58.20;;;;;;5046505;28;20270;-70
2022/07/16 11:20:00;;;;;;;3.15;2.47;;;23.20;58.60;;;;;;5031748;28;20219;-69
2022/07/16 11:22:29;;;;;;;2.35;2.17;;;23.20;58.40;;;;;;5015606;28;20302;-69
2022/07/16 11:24:59;;;;;;;3.22;2.53;;;23.20;58.50;;;;;;5031980;28;20194;-70
2022/07/16 11:27:31;;;;;;;2.85;2.50;;;23.20;58.50;;;;;;5032118;28;20575;-69
2022/07/16 11:30:10;;;;;;;2.90;2.30;;;23.20;58.20;;;;;;5015050;28;20180;-70
2022/07/16 11:32:44;;;;;;;3.83;2.40;;;23.20;58.30;;;;;;5033136;28;20214;-69
2022/07/16 11:35:10;;;;;;;2.47;2.28;;;23.20;58.10;;;;;;5015564;28;20206;-70
2022/07/16 11:37:57;;;;;;;3.05;2.45;;;23.20;58.40;;;;;;5048656;28;20190;-70
2022/07/16 11:40:38;;;;;;;2.42;2.20;;;23.20;58.60;;;;;;5030959;28;20179;-70
2022/07/16 11:43:05;;;;;;;2.50;2.30;;;23.20;58.40;;;;;;5031520;28;20313;-69
2022/07/16 11:45:45;;;;;;;2.72;2.33;;;23.20;58.40;;;;;;5031003;28;20183;-70
2022/07/16 11:48:14;;;;;;;2.63;2.00;;;23.20;58.40;;;;;;5031631;28;20186;-69
2022/07/16 11:50:42;;;;;;;3.20;2.10;;;23.20;58.20;;;;;;5047386;28;20183;-69
2022/07/16 11:53:08;;;;;;;3.72;2.42;;;23.20;58.40;;;;;;5031753;28;20193;-69
2022/07/16 11:55:34;;;;;;;3.45;2.25;;;23.20;58.60;;;;;;5031350;28;20186;-69
2022/07/16 11:57:59;;;;;;;2.35;2.15;;;23.20;58.30;;;;;;5031349;28;20183;-69
2022/07/16 12:00:25;;;;;;;2.83;2.40;;;23.20;58.30;;;;;;5030667;28;20254;-68
2022/07/16 12:02:58;;;;;;;4.60;2.30;;;23.20;58.80;;;;;;5014814;28;20726;-69
2022/07/16 12:05:29;;;;;;;2.38;2.10;;;23.20;58.60;;;;;;5032646;28;20270;-70
2022/07/16 12:07:56;;;;;;;3.55;2.30;;;23.20;58.30;;;;;;5031562;28;20180;-69
2022/07/16 12:10:25;;;;;;;2.83;2.13;;;23.20;58.10;;;;;;5030679;28;20182;-69
2022/07/16 12:13:06;;;;;;;2.25;2.10;;;23.20;58.00;;;;;;5031265;28;20178;-70
2022/07/16 12:16:00;;;;;;;2.90;2.20;;;23.20;58.60;;;;;;5032315;28;20262;-69
2022/07/16 12:18:27;;;;;;;3.78;2.25;;;23.20;58.60;;;;;;5030492;28;20669;-70
2022/07/16 12:20:54;;;;;;;3.25;2.40;;;23.20;58.60;;;;;;5032350;28;20199;-69
2022/07/16 12:23:37;;;;;;;3.70;2.25;;;23.20;58.60;;;;;;5031173;28;20211;-70
2022/07/16 12:26:06;;;;;;;2.28;2.05;;;23.20;58.30;;;;;;5031197;28;20195;-70
2022/07/16 12:28:33;;;;;;;2.55;2.22;;;23.20;58.40;;;;;;5047108;28;20179;-69
2022/07/16 12:31:07;;;;;;;3.10;2.13;;;23.20;58.50;;;;;;5032217;28;20207;-70
2022/07/16 12:33:33;;;;;;;2.10;1.90;;;23.20;58.50;;;;;;5031037;28;20391;-69
2022/07/16 12:36:12;;;;;;;2.75;2.35;;;23.30;58.50;;;;;;5030935;28;20233;-69
2022/07/16 12:38:58;;;;;;;2.22;2.03;;;23.20;58.20;;;;;;5047360;28;20207;-69
2022/07/16 12:41:42;;;;;;;2.15;1.95;;;23.20;58.40;;;;;;5014711;28;20622;-69
2022/07/16 12:44:19;;;;;;;2.75;2.30;;;23.20;58.40;;;;;;5031022;28;20295;-69
2022/07/16 12:46:46;;;;;;;2.60;2.15;;;23.30;58.50;;;;;;5031022;28;20183;-70
2022/07/16 12:49:17;;;;;;;2.80;2.40;;;23.20;58.60;;;;;;5030618;28;20321;-70
2022/07/16 12:51:59;;;;;;;2.58;2.08;;;23.20;58.60;;;;;;5047639;28;20218;-70
2022/07/16 12:54:26;;;;;;;2.53;1.90;;;23.30;58.40;;;;;;5047384;28;20179;-70
2022/07/16 12:59:37;;;;;;;3.03;2.30;;;23.20;58.20;;;;;;5035370;28;20572;-72
2022/07/16 13:02:07;;;;;;;2.83;2.10;;;23.20;58.00;;;;;;5018240;28;20203;-69
2022/07/16 13:04:33;;;;;;;2.58;2.15;;;23.20;58.20;;;;;;5034619;28;20171;-69